createdAt,value
2019-06-07T00:01:37.773Z,11.87
2019-06-07T00:04:08.499Z,11.86
2019-06-07T00:06:36.515Z,11.83
2019-06-07T00:09:09.636Z,11.80
2019-06-07T00:11:37.226Z,11.79
2019-06-07T00:14:05.740Z,11.77
2019-06-07T00:16:34.239Z,11.75
2019-06-07T00:19:02.815Z,11.71
2019-06-07T00:22:12.967Z,11.65
2019-06-07T00:24:01.447Z,11.61
2019-06-07T00:26:29.901Z,11.52
2019-06-07T00:28:58.705Z,11.46
2019-06-07T00:31:27.156Z,11.43
2019-06-07T00:33:56.280Z,11.39
2019-06-07T00:36:24.957Z,11.30
2019-06-07T00:38:53.366Z,11.23
2019-06-07T00:41:22.335Z,11.20
2019-06-07T00:43:50.951Z,11.20
2019-06-07T00:46:21.637Z,11.21
2019-06-07T00:48:49.605Z,11.24
2019-06-07T00:51:19.612Z,11.19
2019-06-07T00:53:48.208Z,11.14
2019-06-07T00:56:18.757Z,11.06
2019-06-07T00:58:46.968Z,10.99
2019-06-07T01:01:18.495Z,10.91
2019-06-07T01:03:45.640Z,10.89
2019-06-07T01:06:15.014Z,10.89
2019-06-07T01:08:43.504Z,10.91
2019-06-07T01:11:13.487Z,10.96
2019-06-07T01:13:42.065Z,11.01
2019-06-07T01:16:10.523Z,11.06
2019-06-07T01:18:45.573Z,11.13
2019-06-07T01:21:09.139Z,11.17
2019-06-07T01:26:07.758Z,11.28
2019-06-07T01:28:36.257Z,11.33
2019-06-07T01:31:04.784Z,11.40
2019-06-07T01:33:50.389Z,11.49
2019-06-07T01:36:03.458Z,11.57
2019-06-07T01:38:31.885Z,11.66
2019-06-07T01:41:00.421Z,11.71
2019-06-07T01:43:31.024Z,11.74
2019-06-07T01:45:59.069Z,11.75
2019-06-07T01:48:46.170Z,11.73
2019-06-07T01:50:57.667Z,11.71
2019-06-07T01:53:28.454Z,11.69
2019-06-07T01:55:56.340Z,11.72
2019-06-07T01:58:28.780Z,11.76
2019-06-07T02:00:55.183Z,11.77
2019-06-07T02:03:26.952Z,11.85
2019-06-07T02:05:53.786Z,11.90
2019-06-07T02:08:23.973Z,11.92
2019-06-07T02:10:52.483Z,11.93
2019-06-07T02:13:21.307Z,11.97
2019-06-07T02:15:49.742Z,12.02
2019-06-07T02:18:21.829Z,12.06
2019-06-07T02:20:48.352Z,12.07
2019-06-07T02:23:16.815Z,12.11
2019-06-07T02:25:50.207Z,12.11
2019-06-07T02:28:32.002Z,12.11
2019-06-07T02:30:58.393Z,12.12
2019-06-07T02:33:15.866Z,12.15
2019-06-07T02:35:44.347Z,12.17
2019-06-07T02:38:12.802Z,12.20
2019-06-07T02:40:41.287Z,12.21
2019-06-07T02:43:09.739Z,12.24
2019-06-07T02:45:43.364Z,12.26
2019-06-07T02:48:08.420Z,12.27
2019-06-07T02:50:38.791Z,12.30
2019-06-07T02:53:07.124Z,12.30
2019-06-07T02:56:26.494Z,12.28
2019-06-07T02:58:05.803Z,12.26
2019-06-07T03:00:58.713Z,12.23
2019-06-07T03:03:07.655Z,12.18
2019-06-07T03:05:40.769Z,12.12
2019-06-07T03:08:08.739Z,12.03
2019-06-07T03:10:41.598Z,11.91
2019-06-07T03:13:08.152Z,11.78
2019-06-07T03:15:47.717Z,11.68
2019-06-07T03:18:12.523Z,11.61
2019-06-07T03:20:41.650Z,11.47
2019-06-07T03:23:10.079Z,11.35
2019-06-07T03:25:40.077Z,11.32
2019-06-07T03:28:08.678Z,11.28
2019-06-07T03:30:52.131Z,11.24
2019-06-07T03:33:07.446Z,11.15
2019-06-07T03:35:37.486Z,11.06
2019-06-07T03:38:06.323Z,11.01
2019-06-07T03:40:38.504Z,10.97
2019-06-07T03:43:04.953Z,10.98
2019-06-07T03:45:36.018Z,10.93
2019-06-07T03:48:03.581Z,10.88
2019-06-07T03:50:35.940Z,10.90
2019-06-07T03:53:02.192Z,10.94
2019-06-07T03:55:34.884Z,11.00
2019-06-07T03:58:30.818Z,11.09
2019-06-07T04:00:32.973Z,11.16
2019-06-07T04:03:01.166Z,11.26
2019-06-07T04:05:32.152Z,11.32
2019-06-07T04:07:59.767Z,11.28
2019-06-07T04:10:48.650Z,11.21
2019-06-07T04:12:58.368Z,11.15
2019-06-07T04:15:27.814Z,11.10
2019-06-07T04:18:01.819Z,11.09
2019-06-07T04:20:29.188Z,11.14
2019-06-07T04:22:57.011Z,11.24
2019-06-07T04:25:25.465Z,11.34
2019-06-07T04:27:53.900Z,11.41
2019-06-07T04:30:42.672Z,11.45
2019-06-07T04:33:12.220Z,11.52
2019-06-07T04:35:43.121Z,11.59
2019-06-07T04:38:12.339Z,11.66
2019-06-07T04:40:42.815Z,11.71
2019-06-07T04:43:12.541Z,11.77
2019-06-07T04:45:50.349Z,11.81
2019-06-07T04:48:11.222Z,11.85
2019-06-07T04:50:43.666Z,11.95
2019-06-07T04:53:10.999Z,12.05
2019-06-07T04:55:41.594Z,12.13
2019-06-07T04:58:09.678Z,12.20
2019-06-07T05:01:02.419Z,12.29
2019-06-07T05:03:08.538Z,12.39
2019-06-07T05:05:41.205Z,12.49
2019-06-07T05:08:17.788Z,12.59
2019-06-07T05:10:38.791Z,12.71
2019-06-07T05:13:07.753Z,12.85
2019-06-07T05:15:38.978Z,12.96
2019-06-07T05:18:06.360Z,13.01
2019-06-07T05:20:36.095Z,13.05
2019-06-07T05:23:05.046Z,13.15
2019-06-07T05:25:35.709Z,13.24
2019-06-07T05:28:03.901Z,13.33
2019-06-07T05:31:02.097Z,13.43
2019-06-07T05:33:06.456Z,13.63
2019-06-07T05:35:35.687Z,14.22
2019-06-07T05:38:05.855Z,15.84
2019-06-07T05:40:43.752Z,17.82
2019-06-07T05:43:23.474Z,19.95
2019-06-07T05:45:51.967Z,21.19
2019-06-07T05:48:20.412Z,21.74
2019-06-07T05:50:56.418Z,22.04
2019-06-07T05:53:19.023Z,22.36
2019-06-07T05:55:48.071Z,22.71
2019-06-07T05:58:16.592Z,22.78
2019-06-07T06:00:47.443Z,22.06
2019-06-07T06:03:15.346Z,20.95
2019-06-07T06:05:54.258Z,19.66
2019-06-07T06:08:14.017Z,18.34
2019-06-07T06:10:46.109Z,17.60
2019-06-07T06:13:12.680Z,17.00
2019-06-07T06:15:54.866Z,16.80
2019-06-07T06:18:11.737Z,16.71
2019-06-07T06:21:04.701Z,16.61
2019-06-07T06:23:10.408Z,16.48
2019-06-07T06:25:42.624Z,16.37
2019-06-07T06:28:12.027Z,16.43
2019-06-07T06:30:41.190Z,16.45
2019-06-07T06:33:27.076Z,16.57
2019-06-07T06:35:39.946Z,16.67
2019-06-07T06:38:08.548Z,16.65
2019-06-07T06:40:38.928Z,16.68
2019-06-07T06:43:07.230Z,16.73
2019-06-07T06:45:35.666Z,16.71
2019-06-07T06:48:04.285Z,16.83
2019-06-07T06:50:32.714Z,16.84
2019-06-07T06:53:01.160Z,16.81
2019-06-07T06:55:29.581Z,16.90
2019-06-07T06:57:58.033Z,17.00
2019-06-07T07:00:51.670Z,17.19
2019-06-07T07:05:49.468Z,17.39
2019-06-07T07:08:14.735Z,17.48
2019-06-07T07:10:46.024Z,17.53
2019-06-07T07:13:15.165Z,17.58
2019-06-07T07:15:46.847Z,17.58
2019-06-07T07:18:13.815Z,17.73
2019-06-07T07:20:43.983Z,17.57
2019-06-07T07:23:12.542Z,17.71
2019-06-07T07:25:43.534Z,17.92
2019-06-07T07:28:11.274Z,18.05
2019-06-07T07:30:56.416Z,18.30
2019-06-07T07:33:22.471Z,18.44
2019-06-07T07:36:15.780Z,18.64
2019-06-07T07:38:21.680Z,18.77
2019-06-07T07:41:13.328Z,18.64
2019-06-07T07:43:20.448Z,18.57
2019-06-07T07:45:53.104Z,18.46
2019-06-07T07:48:19.100Z,18.66
2019-06-07T07:50:51.015Z,18.77
2019-06-07T07:53:17.769Z,18.96
2019-06-07T07:55:51.559Z,19.02
2019-06-07T07:58:16.434Z,19.25
2019-06-07T08:01:00.703Z,19.46
2019-06-07T08:03:15.122Z,19.62
2019-06-07T08:05:45.725Z,19.75
2019-06-07T08:08:13.722Z,19.85
2019-06-07T08:10:42.247Z,20.10
2019-06-07T08:13:27.616Z,20.16
2019-06-07T08:15:40.913Z,20.21
2019-06-07T08:18:09.331Z,19.94
2019-06-07T08:20:37.776Z,20.12
2019-06-07T08:23:06.271Z,20.22
2019-06-07T08:25:34.862Z,20.36
2019-06-07T08:28:03.351Z,20.46
2019-06-07T08:30:52.114Z,20.61
2019-06-07T08:33:24.479Z,20.60
2019-06-07T08:40:32.670Z,21.11
2019-06-07T08:43:15.060Z,21.48
2019-06-07T08:45:31.336Z,21.55
2019-06-07T08:48:09.190Z,21.18
2019-06-07T08:50:30.171Z,20.87
2019-06-07T08:53:10.906Z,20.44
2019-06-07T08:55:28.843Z,19.90
2019-06-07T08:58:02.359Z,19.40
2019-06-07T09:00:46.953Z,18.84
2019-06-07T09:03:03.451Z,18.53
2019-06-07T09:05:28.398Z,18.18
2019-06-07T09:08:21.693Z,18.15
2019-06-07T09:10:27.369Z,18.81
2019-06-07T09:13:00.294Z,19.59
2019-06-07T09:15:25.964Z,20.07
2019-06-07T09:20:36.259Z,21.06
2019-06-07T09:22:59.044Z,21.10
2019-06-07T09:25:24.218Z,21.06
2019-06-07T09:27:52.908Z,21.09
2019-06-07T09:30:41.871Z,21.16
2019-06-07T09:33:11.198Z,21.50
2019-06-07T09:35:40.124Z,21.81
2019-06-07T09:38:23.375Z,22.20
2019-06-07T09:40:38.795Z,22.51
2019-06-07T09:43:55.387Z,22.49
2019-06-07T09:45:37.574Z,22.66
2019-06-07T09:48:13.593Z,22.36
2019-06-07T09:50:36.262Z,22.57
2019-06-07T09:53:19.065Z,22.76
2019-06-07T09:55:35.154Z,22.92
2019-06-07T09:58:47.539Z,23.34
2019-06-07T10:00:40.590Z,23.18
2019-06-07T10:03:16.703Z,22.86
2019-06-07T10:05:34.502Z,22.77
2019-06-07T10:08:16.152Z,22.90
2019-06-07T10:13:01.841Z,21.98
2019-06-07T10:15:30.437Z,21.33
2019-06-07T10:17:58.959Z,21.08
2019-06-07T10:20:27.380Z,21.38
2019-06-07T10:22:55.851Z,21.46
2019-06-07T10:25:24.275Z,21.87
2019-06-07T10:27:52.805Z,22.37
2019-06-07T10:30:22.467Z,22.32
2019-06-07T10:32:52.291Z,22.45
2019-06-07T10:35:20.900Z,22.85
2019-06-07T10:37:49.348Z,23.28
2019-06-07T10:40:18.111Z,23.48
2019-06-07T10:42:46.555Z,23.21
2019-06-07T10:45:15.133Z,23.01
2019-06-07T10:47:43.584Z,23.28
2019-06-07T10:50:12.346Z,23.56
2019-06-07T10:52:40.797Z,22.89
2019-06-07T10:55:10.654Z,22.36
2019-06-07T10:57:39.065Z,22.39
2019-06-07T11:00:11.515Z,22.55
2019-06-07T11:02:40.039Z,22.27
2019-06-07T11:05:10.108Z,22.10
2019-06-07T11:07:38.845Z,22.32
2019-06-07T11:10:13.382Z,22.75
2019-06-07T11:12:37.911Z,23.02
2019-06-07T11:15:08.950Z,22.81
2019-06-07T11:17:37.448Z,22.71
2019-06-07T11:20:10.307Z,22.31
2019-06-07T11:22:39.043Z,21.89
2019-06-07T11:25:09.220Z,21.43
2019-06-07T11:27:38.457Z,21.33
2019-06-07T11:30:10.567Z,21.93
2019-06-07T11:32:39.451Z,22.61
2019-06-07T11:35:10.581Z,22.30
2019-06-07T11:37:39.300Z,22.01
2019-06-07T11:40:27.739Z,21.92
2019-06-07T11:42:40.485Z,21.99
2019-06-07T11:45:12.657Z,22.16
2019-06-07T11:47:40.659Z,22.70
2019-06-07T11:50:09.632Z,23.21
2019-06-07T11:52:38.709Z,23.54
2019-06-07T11:55:09.029Z,23.63
2019-06-07T11:57:37.786Z,24.00
2019-06-07T12:00:11.135Z,23.98
2019-06-07T12:02:40.020Z,24.15
2019-06-07T12:05:10.410Z,23.92
2019-06-07T12:07:38.953Z,23.74
2019-06-07T12:10:08.542Z,23.80
2019-06-07T12:12:37.214Z,24.08
2019-06-07T12:15:10.604Z,23.85
2019-06-07T12:17:39.582Z,23.65
2019-06-07T12:20:10.582Z,23.56
2019-06-07T12:22:38.801Z,23.31
2019-06-07T12:25:07.929Z,23.71
2019-06-07T12:27:36.349Z,24.14
2019-06-07T12:30:15.435Z,24.00
2019-06-07T12:32:39.510Z,24.20
2019-06-07T12:35:08.159Z,24.46
2019-06-07T12:37:43.608Z,24.69
2019-06-07T12:40:10.010Z,24.73
2019-06-07T12:42:38.613Z,24.77
2019-06-07T12:45:08.406Z,24.80
2019-06-07T12:47:36.930Z,24.37
2019-06-07T12:50:07.265Z,24.15
2019-06-07T12:52:35.750Z,23.98
2019-06-07T12:55:06.383Z,23.92
2019-06-07T12:57:34.900Z,23.97
2019-06-07T13:00:05.029Z,24.02
2019-06-07T13:02:33.477Z,24.09
2019-06-07T13:05:04.749Z,24.35
2019-06-07T13:07:32.128Z,24.25
2019-06-07T13:10:00.552Z,24.27
2019-06-07T13:12:29.001Z,24.28
2019-06-07T13:14:57.421Z,24.24
2019-06-07T13:17:25.880Z,24.34
2019-06-07T13:19:54.305Z,24.26
2019-06-07T13:22:22.752Z,24.18
2019-06-07T13:24:51.174Z,24.10
2019-06-07T13:27:20.387Z,24.09
2019-06-07T13:29:48.971Z,24.13
2019-06-07T13:32:17.522Z,24.21
2019-06-07T13:34:45.922Z,24.34
2019-06-07T13:37:14.373Z,24.17
2019-06-07T13:39:42.807Z,23.99
2019-06-07T13:42:11.326Z,23.93
2019-06-07T13:44:39.750Z,24.02
2019-06-07T13:47:08.204Z,24.05
2019-06-07T13:49:36.629Z,24.15
2019-06-07T13:52:05.142Z,24.15
2019-06-07T13:54:33.562Z,24.33
2019-06-07T13:57:03.252Z,24.63
2019-06-07T13:59:31.905Z,24.45
2019-06-07T14:02:00.330Z,24.27
2019-06-07T14:04:29.175Z,24.33
2019-06-07T14:06:57.684Z,24.76
2019-06-07T14:09:27.444Z,24.94
2019-06-07T14:11:56.131Z,25.03
2019-06-07T14:14:26.963Z,25.25
2019-06-07T14:16:54.872Z,24.81
2019-06-07T14:19:24.517Z,24.75
2019-06-07T14:21:53.018Z,24.99
2019-06-07T14:24:22.840Z,25.18
2019-06-07T14:27:06.227Z,25.11
2019-06-07T14:29:36.366Z,25.05
2019-06-07T14:32:06.818Z,24.83
2019-06-07T14:34:35.441Z,25.05
2019-06-07T14:37:04.539Z,24.93
2019-06-07T14:39:33.513Z,24.79
2019-06-07T14:42:09.038Z,24.87
2019-06-07T14:44:33.751Z,24.96
2019-06-07T14:47:02.615Z,25.02
2019-06-07T14:49:32.709Z,25.09
2019-06-07T14:52:01.371Z,25.21
2019-06-07T14:54:33.460Z,25.01
2019-06-07T14:57:03.062Z,25.16
2019-06-07T14:59:30.581Z,25.15
2019-06-07T15:01:59.534Z,25.32
2019-06-07T15:04:28.572Z,25.35
2019-06-07T15:06:57.097Z,25.20
2019-06-07T15:09:26.925Z,25.08
2019-06-07T15:11:55.815Z,25.17
2019-06-07T15:14:24.272Z,25.19
2019-06-07T15:16:52.711Z,25.29
2019-06-07T15:19:23.952Z,25.34
2019-06-07T15:21:51.293Z,25.25
2019-06-07T15:24:19.754Z,25.16
2019-06-07T15:26:48.180Z,25.30
2019-06-07T15:29:16.636Z,25.36
2019-06-07T15:31:45.126Z,25.44
2019-06-07T15:34:13.573Z,25.58
2019-06-07T15:36:42.070Z,25.77
2019-06-07T15:39:10.534Z,25.84
2019-06-07T15:41:39.697Z,25.84
2019-06-07T15:44:08.389Z,25.74
2019-06-07T15:46:37.933Z,25.70
2019-06-07T15:49:06.734Z,25.74
2019-06-07T15:51:36.528Z,25.73
2019-06-07T15:54:05.690Z,25.84
2019-06-07T15:56:34.684Z,25.81
2019-06-07T15:59:03.256Z,25.70
2019-06-07T16:01:33.355Z,25.79
2019-06-07T16:04:02.669Z,25.66
2019-06-07T16:06:32.097Z,25.68
2019-06-07T16:09:00.664Z,25.49
2019-06-07T16:11:29.866Z,25.47
2019-06-07T16:13:58.359Z,25.45
2019-06-07T16:16:26.812Z,25.38
2019-06-07T16:18:55.234Z,25.24
2019-06-07T16:21:23.695Z,25.16
2019-06-07T16:23:52.294Z,25.24
2019-06-07T16:26:20.748Z,25.18
2019-06-07T16:28:49.167Z,25.21
2019-06-07T16:31:17.628Z,25.25
2019-06-07T16:33:46.049Z,25.22
2019-06-07T16:36:14.501Z,25.25
2019-06-07T16:38:42.918Z,25.23
2019-06-07T16:41:11.435Z,25.18
2019-06-07T16:43:40.562Z,25.18
2019-06-07T16:46:09.168Z,25.19
2019-06-07T16:48:38.723Z,25.04
2019-06-07T16:51:07.298Z,25.07
2019-06-07T16:53:36.150Z,25.16
2019-06-07T16:56:05.685Z,25.25
2019-06-07T16:58:34.096Z,25.23
2019-06-07T17:01:02.643Z,25.16
2019-06-07T17:03:31.043Z,25.21
2019-06-07T17:05:59.493Z,25.23
2019-06-07T17:08:27.915Z,25.25
2019-06-07T17:10:56.367Z,25.33
2019-06-07T17:13:33.276Z,25.37
2019-06-07T17:15:54.995Z,25.26
2019-06-07T17:18:23.474Z,25.17
2019-06-07T17:20:51.928Z,25.16
2019-06-07T17:23:20.349Z,25.17
2019-06-07T17:25:49.791Z,25.20
2019-06-07T17:28:18.340Z,25.16
2019-06-07T17:30:48.170Z,25.19
2019-06-07T17:33:16.832Z,25.19
2019-06-07T17:35:46.485Z,25.21
2019-06-07T17:38:15.091Z,25.86
2019-06-07T17:40:44.861Z,26.91
2019-06-07T17:43:13.440Z,27.74
2019-06-07T17:45:43.341Z,28.00
2019-06-07T17:48:12.171Z,28.10
2019-06-07T17:50:41.661Z,27.56
2019-06-07T17:53:10.204Z,27.75
2019-06-07T17:55:38.703Z,27.99
2019-06-07T17:58:07.154Z,28.31
2019-06-07T18:00:48.807Z,28.19
2019-06-07T18:03:17.847Z,27.87
2019-06-07T18:05:49.158Z,27.40
2019-06-07T18:08:17.740Z,27.53
2019-06-07T18:10:47.731Z,27.34
2019-06-07T18:13:16.499Z,27.49
2019-06-07T18:15:51.701Z,27.46
2019-06-07T18:18:17.507Z,27.15
2019-06-07T18:20:47.207Z,26.82
2019-06-07T18:23:15.909Z,26.22
2019-06-07T18:25:44.482Z,25.80
2019-06-07T18:28:13.206Z,25.59
2019-06-07T18:30:41.774Z,25.38
2019-06-07T18:33:10.226Z,25.26
2019-06-07T18:35:38.644Z,24.96
2019-06-07T18:38:10.554Z,24.72
2019-06-07T18:40:37.378Z,24.45
2019-06-07T18:43:05.905Z,24.53
2019-06-07T18:45:34.329Z,24.50
2019-06-07T18:48:02.782Z,24.33
2019-06-07T18:50:31.273Z,24.27
2019-06-07T18:52:59.727Z,24.09
2019-06-07T18:55:28.283Z,23.83
2019-06-07T18:57:56.736Z,23.66
2019-06-07T19:00:25.899Z,23.87
2019-06-07T19:02:54.351Z,24.12
2019-06-07T19:05:22.843Z,24.08
2019-06-07T19:07:52.522Z,24.05
2019-06-07T19:10:21.333Z,23.83
2019-06-07T19:12:50.939Z,23.61
2019-06-07T19:15:20.051Z,23.44
2019-06-07T19:17:49.633Z,23.16
2019-06-07T19:20:18.740Z,23.01
2019-06-07T19:22:47.307Z,22.84
2019-06-07T19:25:16.212Z,22.77
2019-06-07T19:27:44.677Z,22.60
2019-06-07T19:30:14.268Z,22.36
2019-06-07T19:32:42.775Z,22.06
2019-06-07T19:35:11.455Z,21.91
2019-06-07T19:37:39.880Z,21.79
2019-06-07T19:40:08.681Z,21.69
2019-06-07T19:42:37.088Z,21.58
2019-06-07T19:45:28.848Z,21.53
2019-06-07T19:47:39.275Z,21.41
2019-06-07T19:50:08.197Z,21.32
2019-06-07T19:52:36.695Z,21.31
2019-06-07T19:55:09.867Z,21.21
2019-06-07T19:57:38.315Z,21.19
2019-06-07T20:00:14.089Z,21.13
2019-06-07T20:02:37.943Z,21.04
2019-06-07T20:05:07.332Z,20.94
2019-06-07T20:07:35.748Z,20.90
2019-06-07T20:10:07.989Z,20.83
2019-06-07T20:12:36.483Z,20.78
2019-06-07T20:15:27.285Z,20.74
2019-06-07T20:17:38.196Z,20.71
2019-06-07T20:20:08.944Z,20.66
2019-06-07T20:22:37.551Z,20.66
2019-06-07T20:25:06.441Z,20.63
2019-06-07T20:27:34.935Z,20.58
2019-06-07T20:30:05.248Z,20.48
2019-06-07T20:32:33.675Z,20.41
2019-06-07T20:35:02.160Z,20.32
2019-06-07T20:37:30.644Z,20.24
2019-06-07T20:40:11.358Z,20.15
2019-06-07T20:42:29.245Z,20.04
2019-06-07T20:44:57.664Z,19.91
2019-06-07T20:47:26.116Z,19.79
2019-06-07T20:49:54.544Z,19.64
2019-06-07T20:52:22.985Z,19.45
2019-06-07T20:54:51.406Z,19.26
2019-06-07T20:57:19.880Z,19.08
2019-06-07T20:59:48.293Z,18.99
2019-06-07T21:02:16.732Z,18.96
2019-06-07T21:04:45.158Z,18.95
2019-06-07T21:07:13.605Z,18.93
2019-06-07T21:09:42.026Z,18.95
2019-06-07T21:12:10.477Z,19.03
2019-06-07T21:14:38.904Z,19.18
2019-06-07T21:17:08.254Z,19.26
2019-06-07T21:19:36.852Z,19.33
2019-06-07T21:22:06.676Z,19.37
2019-06-07T21:24:35.291Z,19.44
2019-06-07T21:27:05.246Z,19.50
2019-06-07T21:29:33.910Z,19.59
2019-06-07T21:32:03.364Z,19.68
2019-06-07T21:34:31.934Z,19.81
2019-06-07T21:37:01.700Z,19.86
2019-06-07T21:39:30.285Z,19.92
2019-06-07T21:41:58.736Z,19.98
2019-06-07T21:44:27.173Z,19.91
2019-06-07T21:46:55.602Z,19.90
2019-06-07T21:49:24.023Z,19.94
2019-06-07T21:51:52.460Z,19.89
2019-06-07T21:54:20.907Z,19.85
2019-06-07T21:56:49.344Z,19.83
2019-06-07T21:59:17.793Z,19.76
2019-06-07T22:01:46.359Z,19.72
2019-06-07T22:04:14.797Z,19.71
2019-06-07T22:06:43.219Z,19.64
2019-06-07T22:09:12.375Z,19.59
2019-06-07T22:11:40.985Z,19.60
2019-06-07T22:14:10.430Z,19.59
2019-06-07T22:16:38.943Z,19.58
2019-06-07T22:19:08.679Z,19.57
2019-06-07T22:21:38.910Z,19.58
2019-06-07T22:24:08.798Z,19.60
2019-06-07T22:26:37.363Z,19.61
2019-06-07T22:29:06.284Z,19.61
2019-06-07T22:31:34.912Z,19.60
2019-06-07T22:34:03.705Z,19.64
2019-06-07T22:36:32.362Z,19.57
2019-06-07T22:39:00.894Z,18.88
2019-06-07T22:41:29.302Z,18.08
2019-06-07T22:43:57.773Z,17.36
2019-06-07T22:46:36.859Z,16.85
2019-06-07T22:48:56.369Z,16.49
2019-06-07T22:51:24.927Z,16.29
2019-06-07T22:53:53.370Z,16.19
2019-06-07T22:56:38.328Z,16.13
2019-06-07T22:59:07.960Z,16.06
2019-06-07T23:01:36.891Z,16.01
2019-06-07T23:04:05.349Z,15.96
2019-06-07T23:06:33.852Z,15.90
2019-06-07T23:09:02.299Z,15.84
2019-06-07T23:11:30.737Z,15.77
2019-06-07T23:13:59.187Z,15.75
2019-06-07T23:16:27.619Z,15.76
2019-06-07T23:18:56.130Z,15.76
2019-06-07T23:21:24.648Z,15.77
2019-06-07T23:23:53.267Z,15.78
2019-06-07T23:26:21.695Z,15.79
2019-06-07T23:28:50.224Z,15.77
2019-06-07T23:31:18.652Z,15.76
2019-06-07T23:33:47.095Z,15.76
2019-06-07T23:36:17.104Z,15.75
2019-06-07T23:38:45.761Z,15.75
2019-06-07T23:41:15.516Z,15.73
2019-06-07T23:43:44.017Z,15.70
2019-06-07T23:46:13.405Z,15.69
2019-06-07T23:48:41.979Z,15.68
2019-06-07T23:51:11.501Z,15.69
2019-06-07T23:53:40.141Z,15.71
2019-06-07T23:56:08.638Z,15.71
2019-06-07T23:58:37.096Z,15.73
